sensor_id;sensor_type;location;lat;lon;timestamp;P1;durP1;ratioP1;P2;durP2;ratioP2
67556;SDS011;54387;53.526;49.300;2022-09-01T00:01:21;10.98;;;6.22;;
67556;SDS011;54387;53.526;49.300;2022-09-01T00:03:52;8.23;;;5.85;;
67556;SDS011;54387;53.526;49.300;2022-09-01T00:06:20;8.32;;;5.65;;
67556;SDS011;54387;53.526;49.300;2022-09-01T00:08:48;9.77;;;6.00;;
67556;SDS011;54387;53.526;49.300;2022-09-01T00:11:16;10.98;;;6.72;;
67556;SDS011;54387;53.526;49.300;2022-09-01T00:13:42;8.73;;;5.60;;
67556;SDS011;54387;53.526;49.300;2022-09-01T00:16:09;9.40;;;5.95;;
67556;SDS011;54387;53.526;49.300;2022-09-01T00:18:39;7.78;;;5.40;;
67556;SDS011;54387;53.526;49.300;2022-09-01T00:21:07;11.02;;;5.57;;
67556;SDS011;54387;53.526;49.300;2022-09-01T00:23:37;8.68;;;5.47;;
67556;SDS011;54387;53.526;49.300;2022-09-01T00:26:04;8.77;;;5.18;;
67556;SDS011;54387;53.526;49.300;2022-09-01T00:28:34;6.72;;;5.30;;
67556;SDS011;54387;53.526;49.300;2022-09-01T00:31:02;10.57;;;5.07;;
67556;SDS011;54387;53.526;49.300;2022-09-01T00:33:31;8.82;;;4.68;;
67556;SDS011;54387;53.526;49.300;2022-09-01T00:35:57;9.30;;;5.25;;
67556;SDS011;54387;53.526;49.300;2022-09-01T00:38:24;9.40;;;5.57;;
67556;SDS011;54387;53.526;49.300;2022-09-01T00:40:50;8.75;;;4.97;;
67556;SDS011;54387;53.526;49.300;2022-09-01T00:43:19;7.43;;;5.15;;
67556;SDS011;54387;53.526;49.300;2022-09-01T00:45:48;10.38;;;5.43;;
67556;SDS011;54387;53.526;49.300;2022-09-01T00:48:16;7.80;;;5.18;;
67556;SDS011;54387;53.526;49.300;2022-09-01T00:50:45;7.75;;;4.93;;
67556;SDS011;54387;53.526;49.300;2022-09-01T00:53:12;6.95;;;4.85;;
67556;SDS011;54387;53.526;49.300;2022-09-01T00:55:38;7.72;;;5.28;;
67556;SDS011;54387;53.526;49.300;2022-09-01T00:58:05;10.02;;;5.22;;
67556;SDS011;54387;53.526;49.300;2022-09-01T01:00:33;13.68;;;5.30;;
67556;SDS011;54387;53.526;49.300;2022-09-01T01:03:09;10.00;;;5.70;;
67556;SDS011;54387;53.526;49.300;2022-09-01T01:05:37;8.88;;;6.03;;
67556;SDS011;54387;53.526;49.300;2022-09-01T01:08:11;8.05;;;5.30;;
67556;SDS011;54387;53.526;49.300;2022-09-01T01:10:38;7.18;;;5.32;;
67556;SDS011;54387;53.526;49.300;2022-09-01T01:13:10;8.07;;;5.85;;
67556;SDS011;54387;53.526;49.300;2022-09-01T01:15:40;8.45;;;5.57;;
67556;SDS011;54387;53.526;49.300;2022-09-01T01:18:10;8.50;;;5.88;;
67556;SDS011;54387;53.526;49.300;2022-09-01T01:20:38;13.68;;;6.20;;
67556;SDS011;54387;53.526;49.300;2022-09-01T01:25:54;9.15;;;6.05;;
67556;SDS011;54387;53.526;49.300;2022-09-01T01:28:23;9.38;;;6.18;;
67556;SDS011;54387;53.526;49.300;2022-09-01T01:30:55;9.10;;;5.95;;
67556;SDS011;54387;53.526;49.300;2022-09-01T01:33:33;10.48;;;5.88;;
67556;SDS011;54387;53.526;49.300;2022-09-01T01:36:25;7.72;;;5.43;;
67556;SDS011;54387;53.526;49.300;2022-09-01T01:39:05;9.20;;;5.95;;
67556;SDS011;54387;53.526;49.300;2022-09-01T01:41:44;10.18;;;5.93;;
67556;SDS011;54387;53.526;49.300;2022-09-01T01:44:14;7.90;;;5.72;;
67556;SDS011;54387;53.526;49.300;2022-09-01T01:49:15;10.48;;;6.20;;
67556;SDS011;54387;53.526;49.300;2022-09-01T01:51:45;10.35;;;6.00;;
67556;SDS011;54387;53.526;49.300;2022-09-01T01:54:13;10.95;;;6.68;;
67556;SDS011;54387;53.526;49.300;2022-09-01T01:56:42;12.02;;;6.20;;
67556;SDS011;54387;53.526;49.300;2022-09-01T01:59:08;10.73;;;6.60;;
67556;SDS011;54387;53.526;49.300;2022-09-01T02:01:39;10.35;;;6.25;;
67556;SDS011;54387;53.526;49.300;2022-09-01T02:04:07;10.88;;;6.38;;
67556;SDS011;54387;53.526;49.300;2022-09-01T02:06:35;12.60;;;6.63;;
67556;SDS011;54387;53.526;49.300;2022-09-01T02:09:05;11.35;;;6.30;;
67556;SDS011;54387;53.526;49.300;2022-09-01T02:11:33;14.80;;;7.10;;
67556;SDS011;54387;53.526;49.300;2022-09-01T02:14:02;12.27;;;7.18;;
67556;SDS011;54387;53.526;49.300;2022-09-01T02:16:31;15.60;;;7.05;;
67556;SDS011;54387;53.526;49.300;2022-09-01T02:18:59;9.85;;;6.40;;
67556;SDS011;54387;53.526;49.300;2022-09-01T02:21:27;11.55;;;6.65;;
67556;SDS011;54387;53.526;49.300;2022-09-01T02:23:55;9.60;;;6.63;;
67556;SDS011;54387;53.526;49.300;2022-09-01T02:26:27;14.32;;;7.00;;
67556;SDS011;54387;53.526;49.300;2022-09-01T02:29:00;9.68;;;6.60;;
67556;SDS011;54387;53.526;49.300;2022-09-01T02:31:30;8.98;;;7.13;;
67556;SDS011;54387;53.526;49.300;2022-09-01T02:33:59;8.32;;;6.43;;
67556;SDS011;54387;53.526;49.300;2022-09-01T02:36:26;11.05;;;7.22;;
67556;SDS011;54387;53.526;49.300;2022-09-01T02:38:57;12.18;;;6.75;;
67556;SDS011;54387;53.526;49.300;2022-09-01T02:41:23;10.00;;;6.80;;
67556;SDS011;54387;53.526;49.300;2022-09-01T02:43:53;10.32;;;6.75;;
67556;SDS011;54387;53.526;49.300;2022-09-01T02:46:19;9.13;;;7.07;;
67556;SDS011;54387;53.526;49.300;2022-09-01T02:48:49;11.30;;;6.90;;
67556;SDS011;54387;53.526;49.300;2022-09-01T02:51:16;11.05;;;6.88;;
67556;SDS011;54387;53.526;49.300;2022-09-01T02:53:44;11.52;;;6.43;;
67556;SDS011;54387;53.526;49.300;2022-09-01T02:56:16;12.95;;;6.50;;
67556;SDS011;54387;53.526;49.300;2022-09-01T02:58:45;9.23;;;6.95;;
67556;SDS011;54387;53.526;49.300;2022-09-01T03:03:46;10.40;;;6.25;;
67556;SDS011;54387;53.526;49.300;2022-09-01T03:06:13;10.60;;;6.88;;
67556;SDS011;54387;53.526;49.300;2022-09-01T03:08:42;10.38;;;6.80;;
67556;SDS011;54387;53.526;49.300;2022-09-01T03:11:08;12.38;;;6.90;;
67556;SDS011;54387;53.526;49.300;2022-09-01T03:13:36;11.38;;;6.80;;
67556;SDS011;54387;53.526;49.300;2022-09-01T03:16:04;9.02;;;6.18;;
67556;SDS011;54387;53.526;49.300;2022-09-01T03:18:31;9.43;;;6.22;;
67556;SDS011;54387;53.526;49.300;2022-09-01T03:20:58;11.65;;;7.07;;
67556;SDS011;54387;53.526;49.300;2022-09-01T03:23:27;12.70;;;6.95;;
67556;SDS011;54387;53.526;49.300;2022-09-01T03:25:55;8.38;;;6.07;;
67556;SDS011;54387;53.526;49.300;2022-09-01T03:28:23;9.68;;;6.72;;
67556;SDS011;54387;53.526;49.300;2022-09-01T03:30:50;9.85;;;6.15;;
67556;SDS011;54387;53.526;49.300;2022-09-01T03:33:20;10.55;;;6.60;;
67556;SDS011;54387;53.526;49.300;2022-09-01T03:35:47;11.13;;;7.22;;
67556;SDS011;54387;53.526;49.300;2022-09-01T03:38:14;13.85;;;7.07;;
67556;SDS011;54387;53.526;49.300;2022-09-01T03:40:49;9.88;;;7.47;;
67556;SDS011;54387;53.526;49.300;2022-09-01T03:43:17;9.98;;;6.88;;
67556;SDS011;54387;53.526;49.300;2022-09-01T03:45:47;12.27;;;6.65;;
67556;SDS011;54387;53.526;49.300;2022-09-01T03:48:14;39.03;;;9.38;;
67556;SDS011;54387;53.526;49.300;2022-09-01T03:50:41;9.10;;;6.78;;
67556;SDS011;54387;53.526;49.300;2022-09-01T03:53:09;11.60;;;6.85;;
67556;SDS011;54387;53.526;49.300;2022-09-01T03:55:37;29.92;;;8.70;;
67556;SDS011;54387;53.526;49.300;2022-09-01T03:58:07;11.80;;;7.50;;
67556;SDS011;54387;53.526;49.300;2022-09-01T04:00:36;8.75;;;6.30;;
67556;SDS011;54387;53.526;49.300;2022-09-01T04:03:05;11.77;;;6.97;;
67556;SDS011;54387;53.526;49.300;2022-09-01T04:05:34;9.18;;;6.75;;
67556;SDS011;54387;53.526;49.300;2022-09-01T04:08:03;10.30;;;6.97;;
67556;SDS011;54387;53.526;49.300;2022-09-01T04:10:32;11.80;;;6.85;;
67556;SDS011;54387;53.526;49.300;2022-09-01T04:13:03;9.77;;;7.03;;
67556;SDS011;54387;53.526;49.300;2022-09-01T04:15:29;8.95;;;6.45;;
67556;SDS011;54387;53.526;49.300;2022-09-01T04:17:58;7.63;;;5.75;;
67556;SDS011;54387;53.526;49.300;2022-09-01T04:20:39;8.55;;;6.60;;
67556;SDS011;54387;53.526;49.300;2022-09-01T04:23:13;8.40;;;6.22;;
67556;SDS011;54387;53.526;49.300;2022-09-01T04:25:46;14.05;;;6.47;;
67556;SDS011;54387;53.526;49.300;2022-09-01T04:28:16;10.95;;;6.63;;
67556;SDS011;54387;53.526;49.300;2022-09-01T04:30:48;9.55;;;6.80;;
67556;SDS011;54387;53.526;49.300;2022-09-01T04:33:23;10.50;;;6.80;;
67556;SDS011;54387;53.526;49.300;2022-09-01T04:35:52;7.85;;;6.22;;
67556;SDS011;54387;53.526;49.300;2022-09-01T04:38:22;10.00;;;6.28;;
67556;SDS011;54387;53.526;49.300;2022-09-01T04:40:49;11.00;;;6.43;;
67556;SDS011;54387;53.526;49.300;2022-09-01T04:43:16;7.70;;;6.07;;
67556;SDS011;54387;53.526;49.300;2022-09-01T04:45:44;10.25;;;5.88;;
67556;SDS011;54387;53.526;49.300;2022-09-01T04:48:11;13.10;;;6.10;;
67556;SDS011;54387;53.526;49.300;2022-09-01T04:50:39;10.60;;;5.95;;
67556;SDS011;54387;53.526;49.300;2022-09-01T04:53:05;9.90;;;6.25;;
67556;SDS011;54387;53.526;49.300;2022-09-01T04:55:32;10.25;;;5.32;;
67556;SDS011;54387;53.526;49.300;2022-09-01T04:57:58;9.45;;;5.53;;
67556;SDS011;54387;53.526;49.300;2022-09-01T05:00:29;9.07;;;5.18;;
67556;SDS011;54387;53.526;49.300;2022-09-01T05:03:01;8.95;;;5.72;;
67556;SDS011;54387;53.526;49.300;2022-09-01T05:05:38;7.50;;;5.45;;
67556;SDS011;54387;53.526;49.300;2022-09-01T05:08:10;13.68;;;4.78;;
67556;SDS011;54387;53.526;49.300;2022-09-01T05:10:42;7.25;;;4.72;;
67556;SDS011;54387;53.526;49.300;2022-09-01T05:13:12;9.55;;;5.43;;
67556;SDS011;54387;53.526;49.300;2022-09-01T05:15:42;8.05;;;5.38;;
67556;SDS011;54387;53.526;49.300;2022-09-01T05:18:14;10.52;;;4.85;;
67556;SDS011;54387;53.526;49.300;2022-09-01T05:20:48;7.53;;;4.60;;
67556;SDS011;54387;53.526;49.300;2022-09-01T05:23:17;7.60;;;5.07;;
67556;SDS011;54387;53.526;49.300;2022-09-01T05:25:45;8.93;;;4.63;;
67556;SDS011;54387;53.526;49.300;2022-09-01T05:28:17;8.35;;;4.43;;
67556;SDS011;54387;53.526;49.300;2022-09-01T05:30:44;8.77;;;4.97;;
67556;SDS011;54387;53.526;49.300;2022-09-01T05:33:13;10.95;;;4.80;;
67556;SDS011;54387;53.526;49.300;2022-09-01T05:35:48;9.20;;;4.65;;
67556;SDS011;54387;53.526;49.300;2022-09-01T05:38:20;7.35;;;5.10;;
67556;SDS011;54387;53.526;49.300;2022-09-01T05:40:57;7.55;;;4.65;;
67556;SDS011;54387;53.526;49.300;2022-09-01T05:43:28;10.02;;;4.20;;
67556;SDS011;54387;53.526;49.300;2022-09-01T05:45:58;5.97;;;4.25;;
67556;SDS011;54387;53.526;49.300;2022-09-01T05:48:29;7.50;;;4.40;;
67556;SDS011;54387;53.526;49.300;2022-09-01T05:50:56;8.00;;;4.00;;
67556;SDS011;54387;53.526;49.300;2022-09-01T05:53:24;5.90;;;4.43;;
67556;SDS011;54387;53.526;49.300;2022-09-01T05:55:55;4.95;;;3.72;;
67556;SDS011;54387;53.526;49.300;2022-09-01T05:58:22;5.95;;;3.85;;
67556;SDS011;54387;53.526;49.300;2022-09-01T06:00:51;8.25;;;4.40;;
67556;SDS011;54387;53.526;49.300;2022-09-01T06:03:19;8.02;;;4.18;;
67556;SDS011;54387;53.526;49.300;2022-09-01T06:05:47;13.07;;;4.30;;
67556;SDS011;54387;53.526;49.300;2022-09-01T06:08:19;7.97;;;3.63;;
67556;SDS011;54387;53.526;49.300;2022-09-01T06:10:47;13.63;;;3.72;;
67556;SDS011;54387;53.526;49.300;2022-09-01T06:13:15;6.00;;;3.33;;
67556;SDS011;54387;53.526;49.300;2022-09-01T06:15:43;6.97;;;2.97;;
67556;SDS011;54387;53.526;49.300;2022-09-01T06:18:12;6.47;;;3.25;;
67556;SDS011;54387;53.526;49.300;2022-09-01T06:20:43;4.70;;;3.25;;
67556;SDS011;54387;53.526;49.300;2022-09-01T06:23:11;6.53;;;3.65;;
67556;SDS011;54387;53.526;49.300;2022-09-01T06:25:43;7.28;;;3.75;;
67556;SDS011;54387;53.526;49.300;2022-09-01T06:28:15;5.68;;;3.80;;
67556;SDS011;54387;53.526;49.300;2022-09-01T06:30:42;6.03;;;3.58;;
67556;SDS011;54387;53.526;49.300;2022-09-01T06:33:10;5.28;;;3.70;;
67556;SDS011;54387;53.526;49.300;2022-09-01T06:35:42;7.72;;;3.80;;
67556;SDS011;54387;53.526;49.300;2022-09-01T06:38:12;7.43;;;3.92;;
67556;SDS011;54387;53.526;49.300;2022-09-01T06:40:42;6.32;;;3.80;;
67556;SDS011;54387;53.526;49.300;2022-09-01T06:43:09;5.80;;;3.70;;
67556;SDS011;54387;53.526;49.300;2022-09-01T06:45:44;6.35;;;3.35;;
67556;SDS011;54387;53.526;49.300;2022-09-01T06:48:18;6.65;;;3.47;;
67556;SDS011;54387;53.526;49.300;2022-09-01T06:50:46;5.82;;;3.22;;
67556;SDS011;54387;53.526;49.300;2022-09-01T06:53:12;6.03;;;3.83;;
67556;SDS011;54387;53.526;49.300;2022-09-01T06:55:43;6.60;;;3.60;;
67556;SDS011;54387;53.526;49.300;2022-09-01T06:58:13;5.97;;;3.88;;
67556;SDS011;54387;53.526;49.300;2022-09-01T07:00:42;7.55;;;3.90;;
67556;SDS011;54387;53.526;49.300;2022-09-01T07:03:10;6.75;;;3.90;;
67556;SDS011;54387;53.526;49.300;2022-09-01T07:05:39;5.97;;;3.72;;
67556;SDS011;54387;53.526;49.300;2022-09-01T07:08:15;4.88;;;3.70;;
67556;SDS011;54387;53.526;49.300;2022-09-01T07:10:45;6.60;;;4.00;;
67556;SDS011;54387;53.526;49.300;2022-09-01T07:13:19;8.50;;;4.43;;
67556;SDS011;54387;53.526;49.300;2022-09-01T07:15:48;6.53;;;4.60;;
67556;SDS011;54387;53.526;49.300;2022-09-01T07:18:18;8.48;;;4.28;;
67556;SDS011;54387;53.526;49.300;2022-09-01T07:20:46;8.02;;;4.85;;
67556;SDS011;54387;53.526;49.300;2022-09-01T07:23:14;8.63;;;4.78;;
67556;SDS011;54387;53.526;49.300;2022-09-01T07:25:49;5.85;;;4.40;;
67556;SDS011;54387;53.526;49.300;2022-09-01T07:28:19;7.40;;;4.28;;
67556;SDS011;54387;53.526;49.300;2022-09-01T07:30:49;8.98;;;4.25;;
67556;SDS011;54387;53.526;49.300;2022-09-01T07:33:18;11.23;;;4.57;;
67556;SDS011;54387;53.526;49.300;2022-09-01T07:35:48;6.75;;;3.97;;
67556;SDS011;54387;53.526;49.300;2022-09-01T07:38:17;4.75;;;3.33;;
67556;SDS011;54387;53.526;49.300;2022-09-01T07:40:44;5.10;;;3.40;;
67556;SDS011;54387;53.526;49.300;2022-09-01T07:43:15;7.22;;;4.00;;
67556;SDS011;54387;53.526;49.300;2022-09-01T07:45:47;7.28;;;3.63;;
67556;SDS011;54387;53.526;49.300;2022-09-01T07:48:17;8.35;;;3.80;;
67556;SDS011;54387;53.526;49.300;2022-09-01T07:50:45;5.40;;;3.50;;
67556;SDS011;54387;53.526;49.300;2022-09-01T07:53:17;7.70;;;3.40;;
67556;SDS011;54387;53.526;49.300;2022-09-01T07:55:47;4.93;;;3.38;;
67556;SDS011;54387;53.526;49.300;2022-09-01T07:58:16;8.05;;;3.53;;
67556;SDS011;54387;53.526;49.300;2022-09-01T08:00:44;4.60;;;3.55;;
67556;SDS011;54387;53.526;49.300;2022-09-01T08:03:12;3.47;;;2.80;;
67556;SDS011;54387;53.526;49.300;2022-09-01T08:05:39;3.72;;;3.03;;
67556;SDS011;54387;53.526;49.300;2022-09-01T08:08:05;5.93;;;3.47;;
67556;SDS011;54387;53.526;49.300;2022-09-01T08:10:31;4.28;;;2.92;;
67556;SDS011;54387;53.526;49.300;2022-09-01T08:12:58;4.20;;;2.90;;
67556;SDS011;54387;53.526;49.300;2022-09-01T08:15:25;6.22;;;2.97;;
67556;SDS011;54387;53.526;49.300;2022-09-01T08:17:51;7.00;;;2.75;;
67556;SDS011;54387;53.526;49.300;2022-09-01T08:20:17;3.88;;;2.50;;
67556;SDS011;54387;53.526;49.300;2022-09-01T08:22:44;9.13;;;2.95;;
67556;SDS011;54387;53.526;49.300;2022-09-01T08:25:10;4.03;;;3.03;;
67556;SDS011;54387;53.526;49.300;2022-09-01T08:27:37;5.20;;;2.45;;
67556;SDS011;54387;53.526;49.300;2022-09-01T08:30:03;4.68;;;2.60;;
67556;SDS011;54387;53.526;49.300;2022-09-01T08:32:32;5.70;;;2.50;;
67556;SDS011;54387;53.526;49.300;2022-09-01T08:34:59;4.07;;;2.50;;
67556;SDS011;54387;53.526;49.300;2022-09-01T08:37:26;5.70;;;2.80;;
67556;SDS011;54387;53.526;49.300;2022-09-01T08:39:53;4.63;;;3.25;;
67556;SDS011;54387;53.526;49.300;2022-09-01T08:45:43;4.85;;;2.85;;
67556;SDS011;54387;53.526;49.300;2022-09-01T08:48:19;4.13;;;2.95;;
67556;SDS011;54387;53.526;49.300;2022-09-01T08:51:02;4.20;;;2.90;;
67556;SDS011;54387;53.526;49.300;2022-09-01T08:53:45;4.47;;;2.80;;
67556;SDS011;54387;53.526;49.300;2022-09-01T08:56:17;5.25;;;2.92;;
67556;SDS011;54387;53.526;49.300;2022-09-01T08:58:44;5.22;;;2.60;;
67556;SDS011;54387;53.526;49.300;2022-09-01T09:01:14;5.72;;;2.97;;
67556;SDS011;54387;53.526;49.300;2022-09-01T09:06:51;5.10;;;2.83;;
67556;SDS011;54387;53.526;49.300;2022-09-01T09:09:31;6.47;;;3.22;;
67556;SDS011;54387;53.526;49.300;2022-09-01T09:18:15;9.25;;;3.33;;
67556;SDS011;54387;53.526;49.300;2022-09-01T09:21:36;5.30;;;3.05;;
67556;SDS011;54387;53.526;49.300;2022-09-01T09:26:51;4.45;;;2.75;;
67556;SDS011;54387;53.526;49.300;2022-09-01T09:29:19;5.38;;;2.92;;
67556;SDS011;54387;53.526;49.300;2022-09-01T09:31:47;6.97;;;3.20;;
67556;SDS011;54387;53.526;49.300;2022-09-01T09:36:52;5.22;;;3.10;;
67556;SDS011;54387;53.526;49.300;2022-09-01T09:39:18;6.47;;;3.17;;
67556;SDS011;54387;53.526;49.300;2022-09-01T09:42:00;5.78;;;3.30;;
67556;SDS011;54387;53.526;49.300;2022-09-01T09:44:38;5.55;;;3.10;;
67556;SDS011;54387;53.526;49.300;2022-09-01T09:50:22;5.82;;;2.83;;
67556;SDS011;54387;53.526;49.300;2022-09-01T09:52:50;8.05;;;3.13;;
67556;SDS011;54387;53.526;49.300;2022-09-01T09:58:09;5.50;;;2.58;;
67556;SDS011;54387;53.526;49.300;2022-09-01T10:00:37;4.05;;;2.70;;
67556;SDS011;54387;53.526;49.300;2022-09-01T10:03:08;7.97;;;3.20;;
67556;SDS011;54387;53.526;49.300;2022-09-01T10:05:42;6.78;;;3.33;;
67556;SDS011;54387;53.526;49.300;2022-09-01T10:08:11;4.30;;;2.80;;
67556;SDS011;54387;53.526;49.300;2022-09-01T10:11:02;4.90;;;2.50;;
67556;SDS011;54387;53.526;49.300;2022-09-01T10:13:30;4.18;;;2.17;;
67556;SDS011;54387;53.526;49.300;2022-09-01T10:16:01;8.50;;;2.63;;
67556;SDS011;54387;53.526;49.300;2022-09-01T10:18:35;7.82;;;3.00;;
67556;SDS011;54387;53.526;49.300;2022-09-01T10:21:12;5.00;;;3.05;;
67556;SDS011;54387;53.526;49.300;2022-09-01T10:23:41;9.63;;;3.20;;
67556;SDS011;54387;53.526;49.300;2022-09-01T10:26:10;7.40;;;3.33;;
67556;SDS011;54387;53.526;49.300;2022-09-01T10:28:55;4.45;;;3.00;;
67556;SDS011;54387;53.526;49.300;2022-09-01T10:31:25;6.32;;;3.20;;
67556;SDS011;54387;53.526;49.300;2022-09-01T10:33:53;4.13;;;2.88;;
67556;SDS011;54387;53.526;49.300;2022-09-01T10:36:20;7.53;;;2.90;;
67556;SDS011;54387;53.526;49.300;2022-09-01T10:38:47;6.72;;;3.22;;
67556;SDS011;54387;53.526;49.300;2022-09-01T10:44:22;5.47;;;3.30;;
67556;SDS011;54387;53.526;49.300;2022-09-01T10:47:04;9.95;;;3.60;;
67556;SDS011;54387;53.526;49.300;2022-09-01T10:52:10;9.43;;;3.45;;
67556;SDS011;54387;53.526;49.300;2022-09-01T10:54:57;5.28;;;3.45;;
67556;SDS011;54387;53.526;49.300;2022-09-01T11:14:02;7.75;;;4.18;;
67556;SDS011;54387;53.526;49.300;2022-09-01T11:16:34;10.50;;;4.30;;
67556;SDS011;54387;53.526;49.300;2022-09-01T11:19:15;7.32;;;4.13;;
67556;SDS011;54387;53.526;49.300;2022-09-01T11:24:47;6.50;;;3.47;;
67556;SDS011;54387;53.526;49.300;2022-09-01T11:30:16;7.15;;;3.72;;
67556;SDS011;54387;53.526;49.300;2022-09-01T11:32:48;5.10;;;3.78;;
67556;SDS011;54387;53.526;49.300;2022-09-01T11:35:20;6.70;;;3.17;;
67556;SDS011;54387;53.526;49.300;2022-09-01T11:37:51;5.32;;;3.13;;
67556;SDS011;54387;53.526;49.300;2022-09-01T11:40:22;9.00;;;3.20;;
67556;SDS011;54387;53.526;49.300;2022-09-01T11:42:53;9.93;;;3.85;;
67556;SDS011;54387;53.526;49.300;2022-09-01T11:45:25;8.00;;;3.05;;
67556;SDS011;54387;53.526;49.300;2022-09-01T11:48:28;9.15;;;3.00;;
67556;SDS011;54387;53.526;49.300;2022-09-01T11:50:57;8.35;;;3.13;;
67556;SDS011;54387;53.526;49.300;2022-09-01T11:53:26;6.68;;;2.83;;
67556;SDS011;54387;53.526;49.300;2022-09-01T11:55:54;3.40;;;2.70;;
67556;SDS011;54387;53.526;49.300;2022-09-01T12:01:10;5.93;;;3.00;;
67556;SDS011;54387;53.526;49.300;2022-09-01T12:03:43;8.20;;;2.80;;
67556;SDS011;54387;53.526;49.300;2022-09-01T12:06:12;6.40;;;2.72;;
67556;SDS011;54387;53.526;49.300;2022-09-01T12:09:00;6.68;;;3.00;;
67556;SDS011;54387;53.526;49.300;2022-09-01T12:11:30;4.35;;;2.72;;
67556;SDS011;54387;53.526;49.300;2022-09-01T12:14:02;10.77;;;3.75;;
67556;SDS011;54387;53.526;49.300;2022-09-01T12:16:31;7.53;;;2.83;;
67556;SDS011;54387;53.526;49.300;2022-09-01T12:19:01;3.72;;;2.95;;
67556;SDS011;54387;53.526;49.300;2022-09-01T12:21:34;5.90;;;2.70;;
67556;SDS011;54387;53.526;49.300;2022-09-01T12:24:15;6.15;;;2.65;;
67556;SDS011;54387;53.526;49.300;2022-09-01T12:26:45;11.43;;;2.50;;
67556;SDS011;54387;53.526;49.300;2022-09-01T12:29:12;6.50;;;2.72;;
67556;SDS011;54387;53.526;49.300;2022-09-01T12:31:44;7.82;;;2.67;;
67556;SDS011;54387;53.526;49.300;2022-09-01T12:39:42;5.50;;;2.85;;
67556;SDS011;54387;53.526;49.300;2022-09-01T12:50:14;4.45;;;2.47;;
67556;SDS011;54387;53.526;49.300;2022-09-01T12:52:48;8.80;;;2.85;;
67556;SDS011;54387;53.526;49.300;2022-09-01T12:55:25;6.70;;;2.80;;
67556;SDS011;54387;53.526;49.300;2022-09-01T12:57:55;9.70;;;2.72;;
67556;SDS011;54387;53.526;49.300;2022-09-01T13:00:30;4.18;;;2.88;;
67556;SDS011;54387;53.526;49.300;2022-09-01T13:08:03;4.97;;;2.70;;
67556;SDS011;54387;53.526;49.300;2022-09-01T13:10:48;5.25;;;2.45;;
67556;SDS011;54387;53.526;49.300;2022-09-01T13:13:18;3.92;;;2.40;;
67556;SDS011;54387;53.526;49.300;2022-09-01T13:15:46;6.68;;;2.60;;
67556;SDS011;54387;53.526;49.300;2022-09-01T13:18:18;6.50;;;2.60;;
67556;SDS011;54387;53.526;49.300;2022-09-01T13:20:48;4.97;;;2.30;;
67556;SDS011;54387;53.526;49.300;2022-09-01T13:23:16;5.03;;;2.72;;
67556;SDS011;54387;53.526;49.300;2022-09-01T13:25:42;10.57;;;3.10;;
67556;SDS011;54387;53.526;49.300;2022-09-01T13:28:08;4.22;;;2.75;;
67556;SDS011;54387;53.526;49.300;2022-09-01T13:30:35;4.53;;;2.90;;
67556;SDS011;54387;53.526;49.300;2022-09-01T13:33:02;3.95;;;2.85;;
67556;SDS011;54387;53.526;49.300;2022-09-01T13:35:29;4.65;;;2.60;;
67556;SDS011;54387;53.526;49.300;2022-09-01T13:37:55;7.68;;;2.72;;
67556;SDS011;54387;53.526;49.300;2022-09-01T13:40:21;7.35;;;2.80;;
67556;SDS011;54387;53.526;49.300;2022-09-01T13:42:48;5.50;;;2.78;;
67556;SDS011;54387;53.526;49.300;2022-09-01T13:45:19;5.60;;;2.83;;
67556;SDS011;54387;53.526;49.300;2022-09-01T13:47:48;4.75;;;2.78;;
67556;SDS011;54387;53.526;49.300;2022-09-01T13:50:16;7.85;;;3.22;;
67556;SDS011;54387;53.526;49.300;2022-09-01T13:52:45;5.50;;;3.05;;
67556;SDS011;54387;53.526;49.300;2022-09-01T13:55:15;7.80;;;3.10;;
67556;SDS011;54387;53.526;49.300;2022-09-01T13:57:43;4.28;;;2.75;;
67556;SDS011;54387;53.526;49.300;2022-09-01T14:00:11;5.60;;;2.92;;
67556;SDS011;54387;53.526;49.300;2022-09-01T14:02:43;7.60;;;3.00;;
67556;SDS011;54387;53.526;49.300;2022-09-01T14:05:15;7.25;;;3.20;;
67556;SDS011;54387;53.526;49.300;2022-09-01T14:07:43;10.35;;;3.50;;
67556;SDS011;54387;53.526;49.300;2022-09-01T14:10:10;4.70;;;3.08;;
67556;SDS011;54387;53.526;49.300;2022-09-01T14:12:36;5.97;;;3.20;;
67556;SDS011;54387;53.526;49.300;2022-09-01T14:15:04;6.50;;;3.30;;
67556;SDS011;54387;53.526;49.300;2022-09-01T14:17:30;6.78;;;3.40;;
67556;SDS011;54387;53.526;49.300;2022-09-01T14:19:56;8.93;;;3.60;;
67556;SDS011;54387;53.526;49.300;2022-09-01T14:22:23;8.15;;;3.30;;
67556;SDS011;54387;53.526;49.300;2022-09-01T14:24:49;7.82;;;3.60;;
67556;SDS011;54387;53.526;49.300;2022-09-01T14:27:15;8.50;;;3.65;;
67556;SDS011;54387;53.526;49.300;2022-09-01T14:29:41;9.57;;;3.60;;
67556;SDS011;54387;53.526;49.300;2022-09-01T14:32:07;5.72;;;3.97;;
67556;SDS011;54387;53.526;49.300;2022-09-01T14:34:34;8.10;;;3.83;;
67556;SDS011;54387;53.526;49.300;2022-09-01T14:37:01;8.05;;;3.60;;
67556;SDS011;54387;53.526;49.300;2022-09-01T14:39:28;4.57;;;3.60;;
67556;SDS011;54387;53.526;49.300;2022-09-01T14:41:55;7.63;;;3.60;;
67556;SDS011;54387;53.526;49.300;2022-09-01T14:44:21;7.00;;;3.75;;
67556;SDS011;54387;53.526;49.300;2022-09-01T14:46:47;7.25;;;3.45;;
67556;SDS011;54387;53.526;49.300;2022-09-01T14:49:14;6.95;;;3.53;;
67556;SDS011;54387;53.526;49.300;2022-09-01T14:51:41;5.78;;;3.30;;
67556;SDS011;54387;53.526;49.300;2022-09-01T14:54:07;5.38;;;3.65;;
67556;SDS011;54387;53.526;49.300;2022-09-01T14:56:33;9.85;;;3.88;;
67556;SDS011;54387;53.526;49.300;2022-09-01T14:58:59;7.15;;;3.90;;
67556;SDS011;54387;53.526;49.300;2022-09-01T15:01:27;9.43;;;4.10;;
67556;SDS011;54387;53.526;49.300;2022-09-01T15:03:53;10.70;;;4.38;;
67556;SDS011;54387;53.526;49.300;2022-09-01T15:06:20;7.32;;;4.05;;
67556;SDS011;54387;53.526;49.300;2022-09-01T15:08:47;7.68;;;4.03;;
67556;SDS011;54387;53.526;49.300;2022-09-01T15:11:15;8.07;;;4.03;;
67556;SDS011;54387;53.526;49.300;2022-09-01T15:13:43;10.52;;;4.30;;
67556;SDS011;54387;53.526;49.300;2022-09-01T15:16:20;6.88;;;4.00;;
67556;SDS011;54387;53.526;49.300;2022-09-01T15:18:48;6.25;;;4.10;;
67556;SDS011;54387;53.526;49.300;2022-09-01T15:21:22;11.35;;;4.25;;
67556;SDS011;54387;53.526;49.300;2022-09-01T15:23:50;7.15;;;3.80;;
67556;SDS011;54387;53.526;49.300;2022-09-01T15:26:16;11.32;;;4.60;;
67556;SDS011;54387;53.526;49.300;2022-09-01T15:28:43;8.00;;;4.20;;
67556;SDS011;54387;53.526;49.300;2022-09-01T15:31:10;7.72;;;4.43;;
67556;SDS011;54387;53.526;49.300;2022-09-01T15:33:38;12.35;;;4.30;;
67556;SDS011;54387;53.526;49.300;2022-09-01T15:36:05;10.27;;;4.13;;
67556;SDS011;54387;53.526;49.300;2022-09-01T15:38:32;8.18;;;4.10;;
67556;SDS011;54387;53.526;49.300;2022-09-01T15:40:59;11.23;;;4.90;;
67556;SDS011;54387;53.526;49.300;2022-09-01T15:43:26;10.18;;;4.45;;
67556;SDS011;54387;53.526;49.300;2022-09-01T15:45:54;17.40;;;4.78;;
67556;SDS011;54387;53.526;49.300;2022-09-01T15:48:22;11.43;;;4.82;;
67556;SDS011;54387;53.526;49.300;2022-09-01T15:50:50;11.02;;;4.82;;
67556;SDS011;54387;53.526;49.300;2022-09-01T15:53:16;9.93;;;4.13;;
67556;SDS011;54387;53.526;49.300;2022-09-01T15:55:44;10.05;;;4.90;;
67556;SDS011;54387;53.526;49.300;2022-09-01T15:58:13;12.93;;;4.60;;
67556;SDS011;54387;53.526;49.300;2022-09-01T16:00:41;10.32;;;4.38;;
67556;SDS011;54387;53.526;49.300;2022-09-01T16:03:09;6.80;;;4.53;;
67556;SDS011;54387;53.526;49.300;2022-09-01T16:05:37;10.27;;;4.55;;
67556;SDS011;54387;53.526;49.300;2022-09-01T16:08:05;8.07;;;4.55;;